createdAt,value
2023-06-06T00:00:20.150Z,21.95
2023-06-06T00:00:54.423Z,35.75
2023-06-06T00:01:26.720Z,12.57
2023-06-06T00:02:01.539Z,35.78
2023-06-06T00:02:34.412Z,9.35
2023-06-06T00:03:07.010Z,13.18
2023-06-06T00:03:42.417Z,13.77
2023-06-06T00:04:14.919Z,6.93
2023-06-06T00:04:51.422Z,9.13
2023-06-06T00:05:26.995Z,6.38
2023-06-06T00:06:00.657Z,30.58
2023-06-06T00:06:34.950Z,13.63
2023-06-06T00:07:10.433Z,28.70
2023-06-06T00:07:44.658Z,17.60
2023-06-06T00:08:17.156Z,8.70
2023-06-06T00:08:54.026Z,16.73
2023-06-06T00:09:26.274Z,22.15
2023-06-06T00:09:58.501Z,20.67
2023-06-06T00:10:33.425Z,36.13
2023-06-06T00:11:05.943Z,11.18
2023-06-06T00:11:40.883Z,14.85
2023-06-06T00:12:15.704Z,25.63
2023-06-06T00:12:48.309Z,39.13
2023-06-06T00:13:21.927Z,9.65
2023-06-06T00:13:59.972Z,11.70
2023-06-06T00:14:32.621Z,6.47
2023-06-06T00:15:06.804Z,21.73
2023-06-06T00:15:42.097Z,6.65
2023-06-06T00:16:15.403Z,13.60
2023-06-06T00:16:50.819Z,8.02
2023-06-06T00:17:26.667Z,45.95
2023-06-06T00:18:01.180Z,38.92
2023-06-06T00:18:33.510Z,23.88
2023-06-06T00:19:08.279Z,15.98
2023-06-06T00:19:42.114Z,61.70
2023-06-06T00:20:14.890Z,21.35
2023-06-06T00:20:49.909Z,28.10
2023-06-06T00:21:22.803Z,16.83
2023-06-06T00:21:55.283Z,20.48
2023-06-06T00:22:30.104Z,37.80
2023-06-06T00:23:02.402Z,18.60
2023-06-06T00:23:34.814Z,10.73
2023-06-06T00:24:09.934Z,37.88
2023-06-06T00:24:42.287Z,22.75
2023-06-06T00:25:14.578Z,50.88
2023-06-06T00:25:50.966Z,38.15
2023-06-06T00:26:23.160Z,28.27
2023-06-06T00:26:56.346Z,43.55
2023-06-06T00:27:31.192Z,17.20
2023-06-06T00:28:03.462Z,34.50
2023-06-06T00:28:35.753Z,22.77
2023-06-06T00:29:13.690Z,22.45
2023-06-06T00:29:45.986Z,18.88
2023-06-06T00:30:18.192Z,32.15
2023-06-06T00:30:51.610Z,24.42
2023-06-06T00:31:26.479Z,18.15
2023-06-06T00:31:58.719Z,23.20
2023-06-06T00:32:31.118Z,14.40
2023-06-06T00:33:05.932Z,29.70
2023-06-06T00:33:38.154Z,18.58
2023-06-06T00:34:10.384Z,17.63
2023-06-06T00:34:45.386Z,11.30
2023-06-06T00:35:17.609Z,40.33
2023-06-06T00:35:50.796Z,16.60
2023-06-06T00:36:25.604Z,9.98
2023-06-06T00:36:59.253Z,26.50
2023-06-06T00:37:31.441Z,32.45
2023-06-06T00:38:06.312Z,9.48
2023-06-06T00:38:39.031Z,15.65
2023-06-06T00:39:11.310Z,23.48
2023-06-06T00:39:46.543Z,7.00
2023-06-06T00:40:18.722Z,44.17
2023-06-06T00:40:51.213Z,26.33
2023-06-06T00:41:34.998Z,19.00
2023-06-06T00:42:09.073Z,6.97
2023-06-06T00:42:41.427Z,29.75
2023-06-06T00:43:16.273Z,7.88
2023-06-06T00:43:55.452Z,22.15
2023-06-06T00:46:02.178Z,32.65
2023-06-06T00:46:34.778Z,10.88
2023-06-06T00:47:08.155Z,9.20
2023-06-06T00:47:43.340Z,23.13
2023-06-06T00:48:16.861Z,31.38
2023-06-06T00:48:49.237Z,28.70
2023-06-06T00:49:24.484Z,24.45
2023-06-06T00:49:57.674Z,27.00
2023-06-06T00:50:30.103Z,16.25
2023-06-06T00:51:05.067Z,7.65
2023-06-06T00:51:38.349Z,8.93
2023-06-06T00:52:11.244Z,6.05
2023-06-06T00:52:47.830Z,24.13
2023-06-06T00:53:21.461Z,18.70
2023-06-06T00:53:55.190Z,22.48
2023-06-06T00:54:30.076Z,24.50
2023-06-06T00:55:03.278Z,11.25
2023-06-06T00:55:35.685Z,11.73
2023-06-06T00:56:14.625Z,12.75
2023-06-06T00:56:48.613Z,7.53
2023-06-06T00:57:21.504Z,10.07
2023-06-06T00:57:56.358Z,15.25
2023-06-06T00:58:29.189Z,12.10
2023-06-06T00:59:02.622Z,12.48
2023-06-06T00:59:37.797Z,17.67
2023-06-06T01:00:11.937Z,13.27
2023-06-06T01:00:44.561Z,11.05
2023-06-06T01:01:21.970Z,20.45
2023-06-06T01:01:55.405Z,13.05
2023-06-06T01:02:30.227Z,8.90
2023-06-06T01:03:10.900Z,9.10
2023-06-06T01:03:45.678Z,11.77
2023-06-06T01:04:18.553Z,35.28
2023-06-06T01:04:53.759Z,14.10
2023-06-06T01:05:25.945Z,22.10
2023-06-06T01:05:58.266Z,13.57
2023-06-06T01:06:37.301Z,13.65
2023-06-06T01:07:11.000Z,34.85
2023-06-06T01:07:45.220Z,25.55
2023-06-06T01:08:20.519Z,12.93
2023-06-06T01:08:52.718Z,16.73
2023-06-06T01:09:25.047Z,55.22
2023-06-06T01:09:59.931Z,32.83
2023-06-06T01:10:32.549Z,33.78
2023-06-06T01:11:12.095Z,24.92
2023-06-06T01:11:56.672Z,43.38
2023-06-06T01:12:48.781Z,51.42
2023-06-06T01:13:36.919Z,47.70
2023-06-06T01:14:15.121Z,14.13
2023-06-06T01:14:53.934Z,21.65
2023-06-06T01:15:35.887Z,10.68
2023-06-06T01:16:15.240Z,24.83
2023-06-06T01:16:54.141Z,11.25
2023-06-06T01:17:29.786Z,18.45
2023-06-06T01:18:03.383Z,11.02
2023-06-06T01:18:36.403Z,12.80
2023-06-06T01:19:13.798Z,13.45
2023-06-06T01:19:49.733Z,27.17
2023-06-06T01:20:23.764Z,14.43
2023-06-06T01:20:58.878Z,33.28
2023-06-06T01:21:37.091Z,18.50
2023-06-06T01:22:13.496Z,14.48
2023-06-06T01:22:49.760Z,18.13
2023-06-06T01:23:22.149Z,10.48
2023-06-06T01:23:54.679Z,7.57
2023-06-06T01:24:31.360Z,7.50
2023-06-06T01:25:05.073Z,17.38
2023-06-06T01:25:41.848Z,5.40
2023-06-06T01:26:14.096Z,44.35
2023-06-06T01:26:46.449Z,43.58
2023-06-06T01:27:22.675Z,22.30
2023-06-06T01:27:56.652Z,24.05
2023-06-06T01:28:33.017Z,33.30
2023-06-06T01:29:05.198Z,8.98
2023-06-06T01:29:37.506Z,12.80
2023-06-06T01:30:13.581Z,27.52
2023-06-06T01:30:47.359Z,51.10
2023-06-06T01:31:23.637Z,23.90
2023-06-06T01:32:06.736Z,9.80
2023-06-06T01:32:50.966Z,13.32
2023-06-06T01:33:33.080Z,34.38
2023-06-06T01:34:13.567Z,37.47
2023-06-06T01:34:51.827Z,22.52
2023-06-06T01:35:34.601Z,52.15
2023-06-06T01:36:17.874Z,15.80
2023-06-06T01:37:01.620Z,24.63
2023-06-06T01:37:46.732Z,28.75
2023-06-06T01:38:22.094Z,11.02
2023-06-06T01:38:57.657Z,58.50
2023-06-06T01:39:34.163Z,40.35
2023-06-06T01:40:11.457Z,27.55
2023-06-06T01:40:47.721Z,20.88
2023-06-06T01:41:23.643Z,40.17
2023-06-06T01:41:58.883Z,37.47
2023-06-06T01:42:33.226Z,60.50
2023-06-06T01:43:11.625Z,35.42
2023-06-06T01:43:47.164Z,15.88
2023-06-06T01:44:41.682Z,32.55
2023-06-06T01:45:33.025Z,9.52
2023-06-06T01:46:06.796Z,19.23
2023-06-06T01:47:41.327Z,22.70
2023-06-06T01:49:26.685Z,15.52
2023-06-06T01:50:04.968Z,29.33
2023-06-06T01:50:39.606Z,21.70
2023-06-06T01:51:14.834Z,10.00
2023-06-06T01:51:47.688Z,30.08
2023-06-06T01:52:29.312Z,23.90
2023-06-06T01:53:04.124Z,12.77
2023-06-06T01:53:36.448Z,21.40
2023-06-06T01:54:08.735Z,9.02
2023-06-06T01:54:44.672Z,32.65
2023-06-06T01:55:17.011Z,12.70
2023-06-06T01:55:50.329Z,13.40
2023-06-06T01:56:27.380Z,15.07
2023-06-06T01:57:01.356Z,9.63
2023-06-06T01:57:34.366Z,19.73
2023-06-06T01:58:10.266Z,13.32
2023-06-06T01:58:42.950Z,16.33
2023-06-06T01:59:15.239Z,35.00
2023-06-06T01:59:47.445Z,27.15
2023-06-06T02:00:23.006Z,17.55
2023-06-06T02:00:55.284Z,9.30
2023-06-06T02:01:27.725Z,28.67
2023-06-06T02:02:02.583Z,24.88
2023-06-06T02:02:35.660Z,21.85
2023-06-06T02:03:08.947Z,6.20
2023-06-06T02:03:43.897Z,14.07
2023-06-06T02:04:16.392Z,20.20
2023-06-06T02:04:49.432Z,31.52
2023-06-06T02:05:24.814Z,15.50
2023-06-06T02:05:57.102Z,35.25
2023-06-06T02:06:29.571Z,9.98
2023-06-06T02:07:04.572Z,16.13
2023-06-06T02:07:42.727Z,29.10
2023-06-06T02:08:15.619Z,37.65
2023-06-06T02:08:50.620Z,11.77
2023-06-06T02:09:22.798Z,19.42
2023-06-06T02:09:54.961Z,11.25
2023-06-06T02:10:29.873Z,13.27
2023-06-06T02:11:02.210Z,26.98
2023-06-06T02:11:36.423Z,27.30
2023-06-06T02:12:12.470Z,45.85
2023-06-06T02:12:44.756Z,59.35
2023-06-06T02:13:17.687Z,47.83
2023-06-06T02:13:52.580Z,15.85
2023-06-06T02:14:24.852Z,17.83
2023-06-06T02:14:57.243Z,11.57
2023-06-06T02:15:32.189Z,15.13
2023-06-06T02:16:05.714Z,24.30
2023-06-06T02:16:38.022Z,13.52
2023-06-06T02:17:13.222Z,20.67
2023-06-06T02:17:45.401Z,28.13
2023-06-06T02:18:17.693Z,8.68
2023-06-06T02:18:52.557Z,20.23
2023-06-06T02:19:25.357Z,21.30
2023-06-06T02:19:57.636Z,12.30
2023-06-06T02:20:32.548Z,9.38
2023-06-06T02:21:04.953Z,23.17
2023-06-06T02:21:38.197Z,30.90
2023-06-06T02:22:10.401Z,19.70
2023-06-06T02:22:47.914Z,15.57
2023-06-06T02:23:20.240Z,21.70
2023-06-06T02:23:52.497Z,41.70
2023-06-06T02:24:28.571Z,17.42
2023-06-06T02:25:00.762Z,13.10
2023-06-06T02:25:34.515Z,23.58
2023-06-06T02:26:09.321Z,19.20
2023-06-06T02:26:43.710Z,26.00
2023-06-06T02:27:16.392Z,23.42
2023-06-06T02:27:51.412Z,29.70
2023-06-06T02:28:24.673Z,16.92
2023-06-06T02:28:57.028Z,18.92
2023-06-06T02:29:32.498Z,37.28
2023-06-06T02:30:08.473Z,13.80
2023-06-06T02:30:40.879Z,28.50
2023-06-06T02:31:18.232Z,12.82
2023-06-06T02:31:50.772Z,22.75
2023-06-06T02:32:25.324Z,27.52
2023-06-06T02:33:00.521Z,15.73
2023-06-06T02:33:33.954Z,16.38
2023-06-06T02:34:06.613Z,35.80
2023-06-06T02:34:41.731Z,29.45
2023-06-06T02:35:13.948Z,24.15
2023-06-06T02:35:47.573Z,35.53
2023-06-06T02:36:22.658Z,26.17
2023-06-06T02:36:54.950Z,26.95
2023-06-06T02:37:28.273Z,24.27
2023-06-06T02:38:07.383Z,27.35
2023-06-06T02:38:39.639Z,20.30
2023-06-06T02:39:13.708Z,13.13
2023-06-06T02:41:06.449Z,17.85
2023-06-06T02:41:42.311Z,15.23
2023-06-06T02:42:26.406Z,36.55
2023-06-06T02:43:20.737Z,27.00
2023-06-06T02:43:53.087Z,50.58
2023-06-06T02:44:27.938Z,36.38
2023-06-06T02:45:00.156Z,23.42
2023-06-06T02:45:35.766Z,38.63
2023-06-06T02:46:09.113Z,12.38
2023-06-06T02:46:41.399Z,24.45
2023-06-06T02:47:16.460Z,18.48
2023-06-06T02:47:49.213Z,16.98
2023-06-06T02:48:22.210Z,30.15
2023-06-06T02:48:57.068Z,41.00
2023-06-06T02:49:30.030Z,42.70
2023-06-06T02:50:02.503Z,25.20
2023-06-06T02:50:37.798Z,26.92
2023-06-06T02:51:10.251Z,29.50
2023-06-06T02:53:01.813Z,22.63
2023-06-06T02:53:36.976Z,51.60
2023-06-06T02:54:24.578Z,19.63
2023-06-06T02:54:56.821Z,51.60
2023-06-06T02:55:28.999Z,18.13
2023-06-06T02:56:03.783Z,21.02
2023-06-06T02:56:36.066Z,34.30
2023-06-06T02:57:08.350Z,20.85
2023-06-06T02:57:43.130Z,48.72
2023-06-06T02:58:30.908Z,36.05
2023-06-06T02:59:05.899Z,50.30
2023-06-06T02:59:38.128Z,23.30
2023-06-06T03:00:12.990Z,14.35
2023-06-06T03:00:47.883Z,36.33
2023-06-06T03:01:22.395Z,55.97
2023-06-06T03:01:57.309Z,33.00
2023-06-06T03:02:29.732Z,13.38
2023-06-06T03:03:02.001Z,27.80
2023-06-06T03:03:37.000Z,43.20
2023-06-06T03:04:09.355Z,20.40
2023-06-06T03:04:41.765Z,38.38
2023-06-06T03:05:18.513Z,30.85
2023-06-06T03:05:52.519Z,36.47
2023-06-06T03:06:24.806Z,46.92
2023-06-06T03:06:59.584Z,17.17
2023-06-06T03:07:33.342Z,15.98
2023-06-06T03:08:06.264Z,41.47
2023-06-06T03:08:46.317Z,39.22
2023-06-06T03:09:20.564Z,27.55
2023-06-06T03:09:53.496Z,27.58
2023-06-06T03:10:33.656Z,63.65
2023-06-06T03:11:06.358Z,50.92
2023-06-06T03:11:38.602Z,51.80
2023-06-06T03:12:13.509Z,39.10
2023-06-06T03:12:45.861Z,38.92
2023-06-06T03:13:19.674Z,17.35
2023-06-06T03:13:54.574Z,39.72
2023-06-06T03:14:26.786Z,47.17
2023-06-06T03:14:59.023Z,44.42
2023-06-06T03:15:41.530Z,34.08
2023-06-06T03:16:16.868Z,23.80
2023-06-06T03:16:53.340Z,27.63
2023-06-06T03:17:27.739Z,19.17
2023-06-06T03:17:59.991Z,39.28
2023-06-06T03:18:37.868Z,26.25
2023-06-06T03:19:14.583Z,34.72
2023-06-06T03:19:49.901Z,27.50
2023-06-06T03:20:24.904Z,21.60
2023-06-06T03:21:06.699Z,75.40
2023-06-06T03:21:45.354Z,28.85
2023-06-06T03:22:21.041Z,25.42
2023-06-06T03:22:53.290Z,30.05
2023-06-06T03:23:26.360Z,35.38
2023-06-06T03:24:04.799Z,65.22
2023-06-06T03:24:37.207Z,23.20
2023-06-06T03:25:14.687Z,28.20
2023-06-06T03:25:53.110Z,32.40
2023-06-06T03:26:28.214Z,42.35
2023-06-06T03:27:05.306Z,46.65
2023-06-06T03:27:40.228Z,46.35
2023-06-06T03:28:13.866Z,50.83
2023-06-06T03:28:49.724Z,48.00
2023-06-06T03:29:23.689Z,41.38
2023-06-06T03:29:57.268Z,22.48
2023-06-06T03:30:36.177Z,25.92
2023-06-06T03:31:09.193Z,29.05
2023-06-06T03:31:50.719Z,17.60
2023-06-06T03:32:26.744Z,38.10
2023-06-06T03:33:02.218Z,30.67
2023-06-06T03:33:36.712Z,73.32
2023-06-06T03:34:12.151Z,19.15
2023-06-06T03:34:46.829Z,30.08
2023-06-06T03:35:19.596Z,40.25
2023-06-06T03:35:54.574Z,28.70
2023-06-06T03:36:33.825Z,39.00
2023-06-06T03:37:07.419Z,23.48
2023-06-06T03:37:42.005Z,43.63
2023-06-06T03:38:16.775Z,50.75
2023-06-06T03:38:49.588Z,21.88
2023-06-06T03:39:26.936Z,35.88
2023-06-06T03:40:01.932Z,60.17
2023-06-06T03:40:34.815Z,25.83
2023-06-06T03:41:07.221Z,29.48
2023-06-06T03:41:42.829Z,33.13
2023-06-06T03:42:15.102Z,42.80
2023-06-06T03:42:47.562Z,52.00
2023-06-06T03:43:22.588Z,27.25
2023-06-06T03:43:55.348Z,29.55
2023-06-06T03:44:27.628Z,38.50
2023-06-06T03:45:02.586Z,31.17
2023-06-06T03:45:34.993Z,56.60
2023-06-06T03:46:07.360Z,49.00
2023-06-06T03:46:42.442Z,33.58
2023-06-06T03:47:14.844Z,40.25
2023-06-06T03:47:47.167Z,43.53
2023-06-06T03:48:22.077Z,53.70
2023-06-06T03:48:55.845Z,56.65
2023-06-06T03:49:29.480Z,29.63
2023-06-06T03:50:04.761Z,32.85
2023-06-06T03:50:37.001Z,53.03
2023-06-06T03:51:09.463Z,32.25
2023-06-06T03:51:44.390Z,62.60
2023-06-06T03:52:19.199Z,61.22
2023-06-06T03:52:52.755Z,39.20
2023-06-06T03:53:27.583Z,24.98
2023-06-06T03:53:59.861Z,65.10
2023-06-06T03:55:38.434Z,39.67
2023-06-06T03:56:11.008Z,41.63
2023-06-06T03:56:43.936Z,20.27
2023-06-06T03:57:18.953Z,58.78
2023-06-06T03:58:22.127Z,26.38
2023-06-06T03:58:57.417Z,66.47
2023-06-06T03:59:29.675Z,52.53
2023-06-06T04:00:06.317Z,87.72
2023-06-06T04:00:46.713Z,31.85
2023-06-06T04:01:22.418Z,25.00
2023-06-06T04:01:57.390Z,40.78
2023-06-06T04:02:31.001Z,42.85
2023-06-06T04:03:03.920Z,52.80
2023-06-06T04:03:40.246Z,82.93
2023-06-06T04:04:16.654Z,34.97
2023-06-06T04:04:53.186Z,59.40
2023-06-06T04:05:28.243Z,38.67
2023-06-06T04:06:04.121Z,47.33
2023-06-06T04:06:37.224Z,19.85
2023-06-06T04:07:15.283Z,29.10
2023-06-06T04:07:47.524Z,48.15
2023-06-06T04:08:19.826Z,54.65
2023-06-06T04:08:57.224Z,36.35
2023-06-06T04:09:30.702Z,65.07
2023-06-06T04:10:06.410Z,56.78
2023-06-06T04:10:41.174Z,61.50
2023-06-06T04:11:13.505Z,29.73
2023-06-06T04:11:46.258Z,55.35
2023-06-06T04:12:19.036Z,36.42
2023-06-06T04:12:53.870Z,59.88
2023-06-06T04:13:27.398Z,26.05
2023-06-06T04:13:59.666Z,80.38
2023-06-06T04:14:34.668Z,53.42
2023-06-06T04:15:08.077Z,53.92
2023-06-06T04:15:43.028Z,68.47
2023-06-06T04:16:16.204Z,33.65
2023-06-06T04:16:49.284Z,55.33
2023-06-06T04:17:22.560Z,67.32
2023-06-06T04:17:57.448Z,34.42
2023-06-06T04:18:29.689Z,29.25
2023-06-06T04:19:04.360Z,58.70
2023-06-06T04:19:39.220Z,52.92
2023-06-06T04:20:12.884Z,34.92
2023-06-06T04:20:47.706Z,36.20
2023-06-06T04:21:20.080Z,37.80
2023-06-06T04:21:53.294Z,83.50
2023-06-06T04:22:25.844Z,71.60
2023-06-06T04:23:01.483Z,69.40
2023-06-06T04:23:34.287Z,36.28
2023-06-06T04:24:06.766Z,53.03
2023-06-06T04:24:41.984Z,40.38
2023-06-06T04:25:18.508Z,59.40
2023-06-06T04:25:51.885Z,72.15
2023-06-06T04:26:27.291Z,80.68
2023-06-06T04:27:04.675Z,88.05
2023-06-06T04:27:38.458Z,72.95
2023-06-06T04:28:19.354Z,67.20
2023-06-06T04:28:54.756Z,85.00
2023-06-06T04:29:27.802Z,81.40
2023-06-06T04:30:02.642Z,74.90
2023-06-06T04:30:34.946Z,103.07
2023-06-06T04:31:09.351Z,52.30
2023-06-06T04:31:46.194Z,45.65
2023-06-06T04:32:20.910Z,78.22
2023-06-06T04:32:55.620Z,46.50
2023-06-06T04:33:31.658Z,61.60
2023-06-06T04:34:05.176Z,72.78
2023-06-06T04:34:41.287Z,62.30
2023-06-06T04:35:18.569Z,47.70
2023-06-06T04:35:52.486Z,68.43
2023-06-06T04:36:25.280Z,58.33
2023-06-06T04:37:05.454Z,92.28
2023-06-06T04:37:40.810Z,43.30
2023-06-06T04:38:20.370Z,73.97
2023-06-06T04:38:53.113Z,78.93
2023-06-06T04:39:25.502Z,60.55
2023-06-06T04:40:01.868Z,60.10
2023-06-06T04:40:55.463Z,87.07
2023-06-06T04:41:53.536Z,65.32
2023-06-06T04:42:34.406Z,47.80
2023-06-06T04:43:08.898Z,54.22
2023-06-06T04:43:41.119Z,62.10
2023-06-06T04:44:16.652Z,57.42
2023-06-06T04:44:50.915Z,47.03
2023-06-06T04:45:24.599Z,48.53
2023-06-06T04:46:02.563Z,64.90
2023-06-06T04:46:35.164Z,31.13
2023-06-06T04:47:09.683Z,34.13
2023-06-06T04:47:46.270Z,79.75
2023-06-06T04:48:19.699Z,39.42
2023-06-06T04:48:55.608Z,86.90
2023-06-06T04:49:31.533Z,53.83
2023-06-06T04:50:07.464Z,48.30
2023-06-06T04:50:39.714Z,106.47
2023-06-06T04:51:14.833Z,94.20
2023-06-06T04:51:47.081Z,78.88
2023-06-06T04:52:19.510Z,64.40
2023-06-06T04:52:54.288Z,67.03
2023-06-06T04:53:26.822Z,79.53
2023-06-06T04:53:59.581Z,54.10
2023-06-06T04:54:34.467Z,75.82
2023-06-06T04:55:08.768Z,74.22
2023-06-06T04:55:45.202Z,58.83
2023-06-06T04:56:20.180Z,47.35
2023-06-06T04:56:52.939Z,71.03
2023-06-06T04:57:25.840Z,33.10
2023-06-06T04:58:00.649Z,75.88
2023-06-06T04:58:32.837Z,74.47
2023-06-06T04:59:08.373Z,39.92
2023-06-06T04:59:43.376Z,124.88
2023-06-06T05:00:18.011Z,26.77
2023-06-06T05:00:50.606Z,37.03
2023-06-06T05:01:24.575Z,53.42
2023-06-06T05:01:59.746Z,71.93
2023-06-06T05:02:31.955Z,61.75
2023-06-06T05:03:04.902Z,57.17
2023-06-06T05:03:39.778Z,75.00
2023-06-06T05:04:11.989Z,52.08
2023-06-06T05:04:44.236Z,41.85
2023-06-06T05:05:19.573Z,72.15
2023-06-06T05:05:52.940Z,35.53
2023-06-06T05:06:28.512Z,72.20
2023-06-06T05:07:03.807Z,125.15
2023-06-06T05:07:36.028Z,53.25
2023-06-06T05:08:08.221Z,66.45
2023-06-06T05:08:45.868Z,48.83
2023-06-06T05:09:18.812Z,62.67
2023-06-06T05:09:51.011Z,27.90
2023-06-06T05:10:25.842Z,58.35
2023-06-06T05:11:00.618Z,47.50
2023-06-06T05:11:32.943Z,37.25
2023-06-06T05:12:08.614Z,63.55
2023-06-06T05:12:40.886Z,66.55
2023-06-06T05:13:13.068Z,93.45
2023-06-06T05:13:47.898Z,66.32
2023-06-06T05:14:24.855Z,64.40
2023-06-06T05:14:59.770Z,46.47
2023-06-06T05:15:31.962Z,94.90
2023-06-06T05:16:04.449Z,63.28
2023-06-06T05:16:37.151Z,78.80
2023-06-06T05:17:12.296Z,78.18
2023-06-06T05:17:56.567Z,92.88
2023-06-06T05:18:31.139Z,87.43
2023-06-06T05:19:06.389Z,65.38
2023-06-06T05:19:39.889Z,76.65
2023-06-06T05:20:15.689Z,89.40
2023-06-06T05:20:48.013Z,107.70
2023-06-06T05:21:21.163Z,47.25
2023-06-06T05:21:55.983Z,67.97
2023-06-06T05:22:28.502Z,46.72
2023-06-06T05:23:01.376Z,78.70
2023-06-06T05:23:36.395Z,64.28
2023-06-06T05:24:08.843Z,33.00
2023-06-06T05:24:43.747Z,38.15
2023-06-06T05:25:15.984Z,65.70
2023-06-06T05:25:48.350Z,59.47
2023-06-06T05:26:26.542Z,24.70
2023-06-06T05:26:58.913Z,59.60
2023-06-06T05:27:33.774Z,53.13
2023-06-06T05:28:06.037Z,70.75
2023-06-06T05:28:39.231Z,63.63
2023-06-06T05:29:14.114Z,80.43
2023-06-06T05:29:46.325Z,39.13
2023-06-06T05:30:18.753Z,64.93
2023-06-06T05:30:54.352Z,47.53
2023-06-06T05:31:27.163Z,58.00
2023-06-06T05:32:02.058Z,117.32
2023-06-06T05:32:34.394Z,83.75
2023-06-06T05:33:06.637Z,75.28
2023-06-06T05:33:43.621Z,68.35
2023-06-06T05:34:15.985Z,64.80
2023-06-06T05:34:49.164Z,47.72
2023-06-06T05:35:23.958Z,47.97
2023-06-06T05:35:57.078Z,168.02
2023-06-06T05:36:29.416Z,90.28
2023-06-06T05:37:04.415Z,113.03
2023-06-06T05:37:36.603Z,92.75
2023-06-06T05:38:08.798Z,110.40
2023-06-06T05:38:43.967Z,50.03
2023-06-06T05:39:18.433Z,105.72
2023-06-06T05:39:55.274Z,50.22
2023-06-06T05:40:27.510Z,49.10
2023-06-06T05:40:59.771Z,70.90
2023-06-06T05:41:37.345Z,72.40
2023-06-06T05:42:09.694Z,42.95
2023-06-06T05:42:42.037Z,59.17
2023-06-06T05:43:15.558Z,77.75
2023-06-06T05:43:51.491Z,34.92
2023-06-06T05:44:24.187Z,33.35
2023-06-06T05:44:59.086Z,45.47
2023-06-06T05:45:31.525Z,95.85
2023-06-06T05:46:03.947Z,28.05
2023-06-06T05:46:39.095Z,90.05
2023-06-06T05:47:11.457Z,55.90
2023-06-06T05:47:43.687Z,38.10
2023-06-06T05:48:18.544Z,24.40
2023-06-06T05:48:50.710Z,27.15
2023-06-06T05:49:26.362Z,22.95
2023-06-06T05:49:59.337Z,27.02
2023-06-06T05:50:32.030Z,58.00
2023-06-06T05:51:09.124Z,59.83
2023-06-06T05:51:43.414Z,34.95
2023-06-06T05:52:18.171Z,19.58
2023-06-06T05:52:50.360Z,37.40
2023-06-06T05:53:23.357Z,39.35
2023-06-06T05:54:12.408Z,56.45
2023-06-06T05:54:50.678Z,33.00
2023-06-06T05:55:32.456Z,27.42
2023-06-06T05:56:05.884Z,22.02
2023-06-06T05:56:43.409Z,42.25
2023-06-06T05:57:22.400Z,57.50
2023-06-06T05:57:54.614Z,40.42
2023-06-06T05:58:29.610Z,47.80
2023-06-06T05:59:01.834Z,72.00
2023-06-06T05:59:35.527Z,31.02
2023-06-06T06:00:12.111Z,42.78
2023-06-06T06:00:47.156Z,37.63
2023-06-06T06:01:20.037Z,30.90
2023-06-06T06:01:54.796Z,43.45
2023-06-06T06:02:27.663Z,38.60
2023-06-06T06:03:01.892Z,34.05
2023-06-06T06:03:37.193Z,41.85
2023-06-06T06:04:09.799Z,47.58
2023-06-06T06:04:42.701Z,42.25
2023-06-06T06:05:17.851Z,28.38
2023-06-06T06:05:51.140Z,33.78
2023-06-06T06:06:25.960Z,39.65
2023-06-06T06:06:58.152Z,37.45
2023-06-06T06:07:30.427Z,42.03
2023-06-06T06:08:07.596Z,51.70
2023-06-06T06:08:39.818Z,62.95
2023-06-06T06:09:14.825Z,66.00
2023-06-06T06:09:47.573Z,53.67
2023-06-06T06:10:19.823Z,31.63
2023-06-06T06:10:54.732Z,56.20
2023-06-06T06:11:27.465Z,132.85
2023-06-06T06:12:02.295Z,144.85
2023-06-06T06:12:37.132Z,131.18
2023-06-06T06:13:09.340Z,126.50
2023-06-06T06:13:41.577Z,92.95
2023-06-06T06:14:16.372Z,121.95
2023-06-06T06:14:48.590Z,159.20
2023-06-06T06:15:21.105Z,143.77
2023-06-06T06:15:56.056Z,198.90
2023-06-06T06:16:28.470Z,125.18
2023-06-06T06:17:00.744Z,118.35
2023-06-06T06:17:41.597Z,52.05
2023-06-06T06:18:14.132Z,129.07
2023-06-06T06:18:46.547Z,138.95
2023-06-06T06:19:21.395Z,150.13
2023-06-06T06:19:53.620Z,164.35
2023-06-06T06:20:25.902Z,155.43
2023-06-06T06:21:00.976Z,190.95
2023-06-06T06:21:33.407Z,123.70
2023-06-06T06:22:06.040Z,114.13
2023-06-06T06:22:38.849Z,132.55
2023-06-06T06:23:13.677Z,116.40
2023-06-06T06:23:45.949Z,150.40
2023-06-06T06:24:18.137Z,89.82
2023-06-06T06:24:53.262Z,82.70
2023-06-06T06:25:25.930Z,82.20
2023-06-06T06:25:58.293Z,161.35
2023-06-06T06:26:33.081Z,184.55
2023-06-06T06:27:08.035Z,99.45
2023-06-06T06:27:40.509Z,144.38
2023-06-06T06:28:23.010Z,103.75
2023-06-06T06:28:56.947Z,77.15
2023-06-06T06:29:29.130Z,160.70
2023-06-06T06:30:05.582Z,78.35
2023-06-06T06:30:37.805Z,117.18
2023-06-06T06:31:10.297Z,90.35
2023-06-06T06:31:45.211Z,106.20
2023-06-06T06:32:18.712Z,90.47
2023-06-06T06:32:51.010Z,100.00
2023-06-06T06:33:26.650Z,125.20
2023-06-06T06:33:59.088Z,90.60
2023-06-06T06:34:31.275Z,84.88
2023-06-06T06:35:06.494Z,84.03
2023-06-06T06:35:38.671Z,100.47
2023-06-06T06:36:11.422Z,107.53
2023-06-06T06:36:46.202Z,74.70
2023-06-06T06:37:18.383Z,96.65
2023-06-06T06:37:53.473Z,66.55
2023-06-06T06:38:26.396Z,86.47
2023-06-06T06:38:58.691Z,90.68
2023-06-06T06:39:33.445Z,57.42
2023-06-06T06:40:08.017Z,99.78
2023-06-06T06:40:42.777Z,53.53
2023-06-06T06:41:15.041Z,70.15
2023-06-06T06:41:47.558Z,90.93
2023-06-06T06:42:24.976Z,100.35
2023-06-06T06:43:11.715Z,57.45
2023-06-06T06:44:03.396Z,73.32
2023-06-06T06:44:35.697Z,44.13
2023-06-06T06:45:09.912Z,35.13
2023-06-06T06:45:44.698Z,43.35
2023-06-06T06:46:17.169Z,26.83
2023-06-06T06:46:49.384Z,31.48
2023-06-06T06:47:24.282Z,60.05
2023-06-06T06:47:56.713Z,63.55
2023-06-06T06:48:28.999Z,45.22
2023-06-06T06:49:04.166Z,33.40
2023-06-06T06:49:39.025Z,71.10
2023-06-06T06:50:12.466Z,56.88
2023-06-06T06:50:47.265Z,78.63
2023-06-06T06:51:20.625Z,64.07
2023-06-06T06:51:53.931Z,83.70
2023-06-06T06:52:28.764Z,61.10
2023-06-06T06:53:03.468Z,29.92
2023-06-06T06:53:41.733Z,71.20
2023-06-06T06:54:14.447Z,158.38
2023-06-06T06:54:47.932Z,162.05
2023-06-06T06:55:25.291Z,172.40
2023-06-06T06:55:57.658Z,179.32
2023-06-06T06:56:32.522Z,197.52
2023-06-06T06:57:06.332Z,192.68
2023-06-06T06:57:43.515Z,190.85
2023-06-06T06:58:24.120Z,156.05
2023-06-06T06:58:59.060Z,221.93
2023-06-06T06:59:32.329Z,179.57
2023-06-06T07:00:16.771Z,236.15
2023-06-06T07:00:48.981Z,202.52
2023-06-06T07:01:28.656Z,149.55
2023-06-06T07:02:01.646Z,218.20
2023-06-06T07:02:34.917Z,183.38
2023-06-06T07:03:10.379Z,155.90
2023-06-06T07:03:45.659Z,206.45
2023-06-06T07:04:18.629Z,159.15
2023-06-06T07:04:53.781Z,176.63
2023-06-06T07:05:26.266Z,176.82
2023-06-06T07:05:59.278Z,196.50
2023-06-06T07:06:35.059Z,199.60
2023-06-06T07:07:07.885Z,139.20
2023-06-06T07:07:48.194Z,207.75
2023-06-06T07:08:55.014Z,177.10
2023-06-06T07:09:27.308Z,265.75
2023-06-06T07:10:02.074Z,182.35
2023-06-06T07:10:35.349Z,191.50
2023-06-06T07:11:19.021Z,191.32
2023-06-06T07:11:51.559Z,223.70
2023-06-06T07:12:23.811Z,163.73
2023-06-06T07:13:10.467Z,172.80
2023-06-06T07:13:42.741Z,142.27
2023-06-06T07:14:15.018Z,228.70
2023-06-06T07:14:49.918Z,196.40
2023-06-06T07:15:22.392Z,167.25
2023-06-06T07:15:54.613Z,222.40
2023-06-06T07:16:29.612Z,181.45
2023-06-06T07:17:01.968Z,178.43
2023-06-06T07:17:34.354Z,148.63
2023-06-06T07:18:09.207Z,150.77
2023-06-06T07:18:41.684Z,190.98
2023-06-06T07:19:13.972Z,159.82
2023-06-06T07:19:48.829Z,165.15
2023-06-06T07:20:23.897Z,180.52
2023-06-06T07:20:56.139Z,246.13
2023-06-06T07:21:30.930Z,183.68
2023-06-06T07:22:04.361Z,221.68
2023-06-06T07:22:37.512Z,154.38
2023-06-06T07:23:12.529Z,125.10
2023-06-06T07:23:45.188Z,162.82
2023-06-06T07:24:17.833Z,130.65
2023-06-06T07:24:52.697Z,141.93
2023-06-06T07:25:25.242Z,140.40
2023-06-06T07:26:00.027Z,119.07
2023-06-06T07:26:32.234Z,126.78
2023-06-06T07:27:06.115Z,193.77
2023-06-06T07:27:43.334Z,115.28
2023-06-06T07:28:18.159Z,106.00
2023-06-06T07:28:50.533Z,167.00
2023-06-06T07:29:26.355Z,98.88
2023-06-06T07:29:58.717Z,183.43
2023-06-06T07:30:33.590Z,110.18
2023-06-06T07:31:06.366Z,57.80
2023-06-06T07:31:39.350Z,114.13
2023-06-06T07:32:14.206Z,93.05
2023-06-06T07:32:48.531Z,113.65
2023-06-06T07:33:21.172Z,97.70
2023-06-06T07:33:56.606Z,91.32